createdAt,value
2022-08-11T16:12:46.939Z,101742.23
2022-08-11T16:13:47.483Z,101737.00
2022-08-11T16:14:49.424Z,101736.48
2022-08-11T16:15:49.260Z,101736.84
2022-08-11T16:16:50.946Z,101736.59
2022-08-11T16:17:51.177Z,101736.30
2022-08-11T16:18:52.096Z,101736.20
2022-08-11T16:19:51.852Z,101735.70
2022-08-11T16:20:53.328Z,101735.70
2022-08-11T16:21:52.498Z,101735.32
2022-08-11T16:23:01.246Z,101735.08
2022-08-11T16:23:53.066Z,101734.45
2022-08-11T16:26:30.534Z,101733.51
2022-08-11T16:27:02.413Z,101733.86
2022-08-11T16:27:10.078Z,101732.63
2022-08-11T16:27:56.754Z,101731.80
2022-08-11T16:28:55.148Z,101731.11
2022-08-11T16:29:56.316Z,101730.23
2022-08-11T16:30:55.814Z,101729.32
2022-08-11T16:31:57.657Z,101729.32
2022-08-11T16:32:58.587Z,101728.80
2022-08-11T16:33:58.363Z,101728.63
2022-08-11T16:34:59.186Z,101727.68
2022-08-11T16:35:59.576Z,101726.80
2022-08-11T16:36:59.924Z,101725.91
2022-08-11T16:38:00.302Z,101725.59
2022-08-11T16:39:00.970Z,101724.92
2022-08-11T16:39:14.619Z,101715.51
2022-08-11T16:40:14.922Z,101712.70
2022-08-11T16:41:14.873Z,101712.22
2022-08-11T16:43:04.474Z,101711.41
2022-08-11T16:43:15.900Z,101711.37
2022-08-11T16:44:17.416Z,101710.70
2022-08-11T16:45:20.961Z,101710.59
2022-08-11T16:46:17.692Z,101709.66
2022-08-11T16:47:18.363Z,101709.78
2022-08-11T16:48:33.510Z,101709.18
2022-08-11T16:49:19.623Z,101709.07
2022-08-11T16:50:19.713Z,101708.84
2022-08-11T16:51:21.069Z,101708.45
2022-08-11T16:52:21.141Z,101708.05
2022-08-11T16:53:20.826Z,101707.98
2022-08-11T16:54:21.177Z,101707.41
2022-08-11T16:55:52.420Z,101706.95
2022-08-11T16:56:22.311Z,101706.44
2022-08-11T16:57:22.860Z,101705.80
2022-08-11T16:58:23.406Z,101705.27
2022-08-11T16:59:25.067Z,101705.34
2022-08-11T17:00:24.517Z,101704.83
2022-08-11T17:01:24.650Z,101704.33
2022-08-11T17:02:25.549Z,101703.95
2022-08-11T17:03:26.105Z,101703.44
2022-08-11T17:04:26.444Z,101703.26
2022-08-11T17:05:26.722Z,101703.05
2022-08-11T17:05:38.157Z,101703.75
2022-08-11T17:06:38.308Z,101703.32
2022-08-11T17:07:41.856Z,101703.14
2022-08-11T17:08:38.836Z,101703.00
2022-08-11T17:09:39.593Z,101702.89
2022-08-11T17:10:53.754Z,101702.61
2022-08-11T17:11:41.250Z,101703.24
2022-08-11T17:12:42.382Z,101703.48
2022-08-11T17:13:43.073Z,101702.96
2022-08-11T17:14:42.938Z,101703.14
2022-08-11T17:15:44.121Z,101703.07
2022-08-11T17:16:44.071Z,101702.83
2022-08-11T17:17:45.338Z,101702.97
2022-08-11T17:18:45.366Z,101702.45
2022-08-11T17:20:38.343Z,101702.38
2022-08-11T17:20:45.809Z,101702.21
2022-08-11T17:21:47.378Z,101702.14
2022-08-11T17:22:47.226Z,101702.25
2022-08-11T17:23:47.452Z,101702.25
2022-08-11T17:24:47.716Z,101702.19
2022-08-11T17:25:59.715Z,101701.56
2022-08-11T17:26:48.031Z,101701.14
2022-08-11T17:27:48.108Z,101701.21
2022-08-11T17:29:26.414Z,101694.23
2022-08-11T17:30:30.742Z,101695.75
2022-08-11T17:31:27.506Z,101696.11
2022-08-11T17:32:27.600Z,101696.22
2022-08-11T17:33:28.558Z,101696.28
2022-08-11T17:34:28.604Z,101695.97
2022-08-11T17:35:30.255Z,101695.52
2022-08-11T17:36:29.243Z,101695.70
2022-08-11T17:37:29.413Z,101695.58
2022-08-11T17:38:30.416Z,101695.69
2022-08-11T17:39:32.162Z,101695.70
2022-08-11T17:40:31.554Z,101695.59
2022-08-11T17:41:33.463Z,101695.81
2022-08-11T17:42:36.009Z,101696.30
2022-08-11T17:43:33.583Z,101696.34
2022-08-11T17:44:34.872Z,101696.16
2022-08-11T17:45:34.932Z,101696.49
2022-08-11T17:46:35.338Z,101696.45
2022-08-11T17:47:36.433Z,101696.57
2022-08-11T17:48:35.715Z,101697.25
2022-08-11T17:49:36.639Z,101697.87
2022-08-11T17:50:38.546Z,101698.20
2022-08-11T17:51:39.335Z,101698.40
2022-08-11T17:52:39.051Z,101698.91
2022-08-11T17:53:39.892Z,101699.20
2022-08-11T17:54:16.996Z,101698.80
2022-08-11T17:54:49.885Z,101697.17
2022-08-11T17:55:51.959Z,101697.45
2022-08-11T17:56:50.832Z,101697.81
2022-08-11T17:57:50.969Z,101698.20
2022-08-11T17:58:52.903Z,101699.25
2022-08-11T17:59:53.234Z,101699.05
2022-08-11T18:00:51.924Z,101699.23
2022-08-11T18:01:54.032Z,101699.32
2022-08-11T18:02:52.949Z,101699.37
2022-08-11T18:03:58.454Z,101699.41
2022-08-11T18:04:54.240Z,101699.98
2022-08-11T18:05:54.605Z,101700.45
2022-08-11T18:06:55.269Z,101701.20
2022-08-11T18:07:56.737Z,101701.63
2022-08-11T18:08:56.846Z,101701.83
2022-08-11T18:09:55.859Z,101702.68
2022-08-11T18:10:55.933Z,101703.00
2022-08-11T18:12:06.861Z,101703.65
2022-08-11T18:12:56.613Z,101704.37
2022-08-11T18:13:57.465Z,101705.05
2022-08-11T18:14:57.774Z,101705.63
2022-08-11T18:15:58.236Z,101705.95
2022-08-11T18:17:03.833Z,101706.28
2022-08-11T18:17:59.260Z,101706.50
2022-08-11T18:19:00.595Z,101707.22
2022-08-11T18:19:09.306Z,101716.52
2022-08-11T18:20:09.721Z,101721.60
2022-08-11T18:21:10.870Z,101721.14
2022-08-11T18:22:15.122Z,101720.80
2022-08-11T18:23:11.179Z,101720.56
2022-08-11T18:24:11.572Z,101720.77
2022-08-11T18:25:12.746Z,101720.28
2022-08-11T18:26:12.777Z,101720.31
2022-08-11T18:27:13.740Z,101720.52
2022-08-11T18:28:13.413Z,101720.88
2022-08-11T18:29:13.838Z,101720.84
2022-08-11T18:30:14.746Z,101721.30
2022-08-11T18:31:16.328Z,101720.98
2022-08-11T18:32:21.998Z,101721.11
2022-08-11T18:33:44.937Z,101721.39
2022-08-11T18:34:16.833Z,101721.28
2022-08-11T18:35:16.996Z,101721.56
2022-08-11T18:36:18.517Z,101721.87
2022-08-11T18:37:20.210Z,101721.91
2022-08-11T18:38:18.847Z,101722.14
2022-08-11T18:39:19.951Z,101722.20
2022-08-11T18:40:18.990Z,101722.65
2022-08-11T18:41:19.140Z,101722.78
2022-08-11T18:42:29.097Z,101723.20
2022-08-11T18:43:23.814Z,101723.61
2022-08-11T18:44:20.477Z,101724.22
2022-08-11T18:45:20.756Z,101724.73
2022-08-11T18:46:22.017Z,101725.48
2022-08-11T18:47:21.307Z,101725.78
2022-08-11T18:47:32.603Z,101735.82
2022-08-11T18:48:34.190Z,101741.21
2022-08-11T18:50:02.547Z,101740.80
2022-08-11T18:50:39.537Z,101740.41
2022-08-11T18:51:36.825Z,101740.20
2022-08-11T18:52:34.409Z,101740.16
2022-08-11T18:53:36.305Z,101740.11
2022-08-11T18:54:36.292Z,101739.75
2022-08-11T18:55:36.190Z,101739.95
2022-08-11T18:56:36.731Z,101740.12
2022-08-11T18:57:49.754Z,101739.80
2022-08-11T18:58:38.171Z,101739.74
2022-08-11T18:59:39.021Z,101739.66
2022-08-11T19:00:40.294Z,101739.77
2022-08-11T19:01:43.066Z,101739.69
2022-08-11T19:02:49.161Z,101739.56
2022-08-11T19:03:43.336Z,101739.92
2022-08-11T19:04:42.163Z,101740.77
2022-08-11T19:06:31.816Z,101740.81
2022-08-11T19:06:43.072Z,101741.17
2022-08-11T19:07:46.559Z,101741.17
2022-08-11T19:08:44.250Z,101741.80
2022-08-11T19:09:45.203Z,101742.36
2022-08-11T19:10:53.190Z,101742.28
2022-08-11T19:11:46.801Z,101742.28
2022-08-11T19:12:47.825Z,101742.56
2022-08-11T19:13:59.156Z,101743.53
2022-08-11T19:14:47.941Z,101743.57
2022-08-11T19:16:06.037Z,101743.98
2022-08-11T19:17:47.125Z,101744.80
2022-08-11T19:17:50.070Z,101745.52
2022-08-11T19:18:52.992Z,101746.31
2022-08-11T19:19:50.663Z,101747.02
2022-08-11T19:20:53.999Z,101747.31
2022-08-11T19:21:52.067Z,101747.85
2022-08-11T19:22:52.042Z,101748.56
2022-08-11T19:23:52.980Z,101749.06
2022-08-11T19:24:53.870Z,101750.58
2022-08-11T19:25:54.814Z,101751.50
2022-08-11T19:26:55.704Z,101752.20
2022-08-11T19:28:14.216Z,101753.39
2022-08-11T19:30:09.079Z,101775.00
2022-08-11T19:30:46.724Z,101771.72
2022-08-11T19:31:52.847Z,101771.44
2022-08-11T19:32:44.854Z,101771.53
2022-08-11T19:34:03.012Z,101771.39
2022-08-11T19:34:44.852Z,101772.05
2022-08-11T19:37:20.715Z,101781.07
2022-08-11T19:38:10.578Z,101778.59
2022-08-11T19:39:08.047Z,101778.77
2022-08-11T19:40:14.209Z,101778.24
2022-08-11T19:41:12.929Z,101778.31
2022-08-11T19:42:10.864Z,101778.59
2022-08-11T19:43:23.579Z,101778.65
2022-08-11T19:44:16.720Z,101779.44
2022-08-11T19:45:23.249Z,101779.31
2022-08-11T19:46:14.955Z,101779.60
2022-08-11T19:47:17.541Z,101780.20
2022-08-11T19:48:32.080Z,101780.41
2022-08-11T19:49:13.477Z,101781.05
2022-08-11T19:50:21.502Z,101782.40
2022-08-11T19:51:15.116Z,101783.16
2022-08-11T19:52:19.190Z,101783.61
2022-08-11T19:53:17.669Z,101784.55
2022-08-11T19:54:16.975Z,101785.06
2022-08-11T19:55:19.207Z,101785.79
2022-08-11T19:56:17.375Z,101786.51
2022-08-11T19:57:17.697Z,101787.20
2022-08-11T19:58:18.553Z,101788.02
2022-08-11T19:59:23.072Z,101788.81
2022-08-11T20:00:19.402Z,101789.92
2022-08-11T20:01:19.519Z,101790.52
2022-08-11T20:03:37.324Z,101803.95
2022-08-11T20:06:19.726Z,101808.19
2022-08-11T20:07:21.981Z,101810.73
2022-08-11T20:08:20.017Z,101810.41
2022-08-11T20:09:19.949Z,101810.30
2022-08-11T20:10:23.344Z,101810.59
2022-08-11T20:11:23.423Z,101809.89
2022-08-11T20:12:24.130Z,101809.95
2022-08-11T20:13:29.537Z,101809.44
2022-08-11T20:14:22.880Z,101809.34
2022-08-11T20:15:23.888Z,101809.85
2022-08-11T20:16:24.956Z,101809.77
2022-08-11T20:17:24.304Z,101810.27
2022-08-11T20:18:27.348Z,101810.77
2022-08-11T20:19:26.197Z,101810.67
2022-08-11T20:20:25.348Z,101811.35
2022-08-11T20:21:32.786Z,101811.29
2022-08-11T20:22:26.429Z,101811.77
2022-08-11T20:23:25.672Z,101812.22
2022-08-11T20:24:26.625Z,101812.09
2022-08-11T20:25:33.652Z,101812.68
2022-08-11T20:26:31.272Z,101812.50
2022-08-11T20:27:29.653Z,101812.60
2022-08-11T20:28:33.651Z,101812.57
2022-08-11T20:29:29.997Z,101813.05
2022-08-11T20:30:30.162Z,101813.44
2022-08-11T20:31:32.779Z,101813.80
2022-08-11T20:32:31.137Z,101814.31
2022-08-11T20:32:45.622Z,101818.49
2022-08-11T20:33:44.054Z,101815.48
2022-08-11T20:34:45.900Z,101815.48
2022-08-11T20:36:20.860Z,101816.52
2022-08-11T20:36:45.778Z,101816.69
2022-08-11T20:37:51.127Z,101817.48
2022-08-11T20:38:53.351Z,101817.81
2022-08-11T20:39:47.087Z,101817.89
2022-08-11T20:40:56.520Z,101818.56
2022-08-11T20:43:09.076Z,101830.65
2022-08-11T20:44:09.113Z,101820.23
2022-08-11T20:45:07.494Z,101820.23
2022-08-11T20:46:35.977Z,101829.36
2022-08-11T20:47:59.419Z,101820.59
2022-08-11T20:48:40.882Z,101820.59
2022-08-11T20:49:45.932Z,101820.59
2022-08-11T20:50:38.401Z,101821.28
2022-08-11T20:51:40.404Z,101821.45
2022-08-11T20:52:40.619Z,101821.98
2022-08-11T20:53:42.490Z,101822.14
2022-08-11T20:54:43.644Z,101822.05
2022-08-11T20:55:52.271Z,101822.25
2022-08-11T20:56:41.824Z,101822.58
2022-08-11T20:58:00.027Z,101822.30
2022-08-11T20:59:17.367Z,101822.34
2022-08-11T20:59:52.790Z,101822.59
2022-08-11T21:00:11.617Z,101830.02
2022-08-11T21:01:20.427Z,101826.73
2022-08-11T21:02:10.943Z,101826.52
2022-08-11T21:03:11.767Z,101826.86
2022-08-11T21:04:13.332Z,101826.61
2022-08-11T21:05:19.334Z,101827.05
2022-08-11T21:06:13.604Z,101827.32
2022-08-11T21:07:22.789Z,101827.32
2022-08-11T21:08:14.652Z,101827.23
2022-08-11T21:09:19.738Z,101827.23
2022-08-11T21:10:24.055Z,101827.56
2022-08-11T21:12:17.044Z,101828.23
2022-08-11T21:15:04.814Z,101832.97
2022-08-11T21:16:01.360Z,101824.17
2022-08-11T21:17:01.751Z,101824.02
2022-08-11T21:18:06.939Z,101824.12
2022-08-11T21:19:04.124Z,101825.16
2022-08-11T21:20:10.781Z,101825.13
2022-08-11T21:21:25.591Z,101825.63
2022-08-11T21:22:07.722Z,101825.53
2022-08-11T21:23:08.379Z,101825.95
2022-08-11T21:24:06.220Z,101826.08
2022-08-11T21:25:07.262Z,101826.61
2022-08-11T21:26:06.934Z,101826.85
2022-08-11T21:27:08.123Z,101827.27
2022-08-11T21:27:24.754Z,101832.66
2022-08-11T21:28:23.189Z,101831.84
2022-08-11T21:29:24.298Z,101831.70
2022-08-11T21:30:25.120Z,101831.48
2022-08-11T21:31:26.102Z,101832.02
2022-08-11T21:32:26.889Z,101832.44
2022-08-11T21:33:28.581Z,101832.30
2022-08-11T21:34:29.441Z,101832.94
2022-08-11T21:35:28.858Z,101833.09
2022-08-11T21:36:29.676Z,101833.13
2022-08-11T21:37:30.973Z,101833.37
2022-08-11T21:38:30.878Z,101833.34
2022-08-11T21:39:31.373Z,101833.08
2022-08-11T21:40:31.592Z,101832.91
2022-08-11T21:41:32.431Z,101833.25
2022-08-11T21:42:34.252Z,101832.94
2022-08-11T21:43:33.429Z,101833.28
2022-08-11T21:43:47.651Z,101827.97
2022-08-11T21:44:47.827Z,101829.08
2022-08-11T21:45:48.930Z,101828.58
2022-08-11T21:46:48.694Z,101828.80
2022-08-11T21:47:49.419Z,101829.17
2022-08-11T21:48:49.497Z,101829.49
2022-08-11T21:49:51.172Z,101829.74
2022-08-11T21:50:50.883Z,101830.21
2022-08-11T21:51:50.854Z,101830.04
2022-08-11T21:52:51.675Z,101830.76
2022-08-11T21:53:53.571Z,101830.16
2022-08-11T21:54:55.019Z,101829.77
2022-08-11T21:55:53.841Z,101830.27
2022-08-11T21:56:55.311Z,101829.75
2022-08-11T21:57:54.908Z,101829.66
2022-08-11T21:58:55.563Z,101830.06
2022-08-11T21:59:57.063Z,101830.06
2022-08-11T22:00:56.893Z,101830.46
2022-08-11T22:01:58.164Z,101830.56
2022-08-11T22:02:57.864Z,101831.30
2022-08-11T22:03:09.879Z,101832.94
2022-08-11T22:04:10.971Z,101831.59
2022-08-11T22:05:11.201Z,101831.47
2022-08-11T22:06:11.583Z,101831.81
2022-08-11T22:07:11.820Z,101831.92
2022-08-11T22:08:12.361Z,101831.78
2022-08-11T22:09:12.249Z,101831.95
2022-08-11T22:10:41.539Z,101832.34
2022-08-11T22:11:13.204Z,101831.60
2022-08-11T22:12:29.504Z,101831.06
2022-08-11T22:13:14.910Z,101831.29
2022-08-11T22:14:15.781Z,101830.92
2022-08-11T22:15:16.492Z,101830.94
2022-08-11T22:16:16.532Z,101830.99
2022-08-11T22:17:17.345Z,101831.28
2022-08-11T22:18:18.165Z,101831.21
2022-08-11T22:19:19.024Z,101830.94
2022-08-11T22:19:29.515Z,101838.58
2022-08-11T22:20:30.388Z,101832.80
2022-08-11T22:22:01.276Z,101832.28
2022-08-11T22:22:31.983Z,101832.55
2022-08-11T22:23:35.317Z,101832.64
2022-08-11T22:24:33.666Z,101833.38
2022-08-11T22:25:38.740Z,101833.83
2022-08-11T22:26:34.082Z,101833.95
2022-08-11T22:27:34.665Z,101833.89
2022-08-11T22:28:35.498Z,101833.97
2022-08-11T22:29:49.162Z,101834.28
2022-08-11T22:30:37.132Z,101834.68
2022-08-11T22:31:37.598Z,101834.92
2022-08-11T22:32:38.859Z,101835.07
2022-08-11T22:33:41.411Z,101834.82
2022-08-11T22:34:52.610Z,101834.80
2022-08-11T22:35:40.708Z,101834.70
2022-08-11T22:36:41.266Z,101834.84
2022-08-11T22:37:42.659Z,101834.57
2022-08-11T22:38:43.281Z,101834.64
2022-08-11T22:38:51.914Z,101842.00
2022-08-11T22:40:01.609Z,101832.66
2022-08-11T22:40:53.275Z,101832.51
2022-08-11T22:41:54.209Z,101832.58
2022-08-11T22:42:54.920Z,101832.91
2022-08-11T22:43:55.608Z,101833.13
2022-08-11T22:44:56.652Z,101832.91
2022-08-11T22:45:57.534Z,101833.25
2022-08-11T22:46:57.617Z,101833.09
2022-08-11T22:47:58.062Z,101832.68
2022-08-11T22:48:58.856Z,101832.98
2022-08-11T22:49:59.623Z,101833.52
2022-08-11T22:50:58.674Z,101833.56
2022-08-11T22:51:59.358Z,101833.68
2022-08-11T22:53:00.999Z,101833.83
2022-08-11T22:54:00.468Z,101834.14
2022-08-11T22:55:01.751Z,101834.31
2022-08-11T22:56:01.967Z,101834.16
2022-08-11T22:57:01.999Z,101834.41
2022-08-11T22:58:02.577Z,101834.94
2022-08-11T22:59:03.207Z,101834.98
2022-08-11T23:00:03.536Z,101835.30
2022-08-11T23:00:12.694Z,101838.46
2022-08-11T23:01:13.386Z,101836.30
2022-08-11T23:02:14.279Z,101836.17
2022-08-11T23:03:37.064Z,101836.15
2022-08-11T23:04:15.377Z,101836.78
2022-08-11T23:05:15.911Z,101836.95
2022-08-11T23:06:16.970Z,101836.39
2022-08-11T23:07:50.059Z,101836.64
2022-08-11T23:08:16.751Z,101836.21
2022-08-11T23:09:17.387Z,101835.74
2022-08-11T23:10:18.758Z,101835.59
2022-08-11T23:11:18.627Z,101835.81
2022-08-11T23:12:19.291Z,101836.17
2022-08-11T23:13:22.368Z,101835.98
2022-08-11T23:14:20.442Z,101836.24
2022-08-11T23:15:20.527Z,101836.30
2022-08-11T23:16:22.185Z,101836.86
2022-08-11T23:17:21.860Z,101836.41
2022-08-11T23:18:22.622Z,101836.44
2022-08-11T23:20:09.647Z,101836.58
2022-08-11T23:20:36.266Z,101836.77
2022-08-11T23:21:24.392Z,101836.98
2022-08-11T23:22:36.926Z,101837.09
2022-08-11T23:23:26.270Z,101836.81
2022-08-11T23:24:26.837Z,101836.70
2022-08-11T23:25:27.740Z,101836.51
2022-08-11T23:26:28.633Z,101836.83
2022-08-11T23:27:29.433Z,101836.92
2022-08-11T23:28:30.195Z,101836.63
2022-08-11T23:28:40.873Z,101834.67
2022-08-11T23:29:41.695Z,101837.69
2022-08-11T23:30:43.301Z,101837.34
2022-08-11T23:31:51.286Z,101836.95
2022-08-11T23:32:43.062Z,101836.61
2022-08-11T23:33:43.144Z,101836.09
2022-08-11T23:35:03.732Z,101836.48
2022-08-11T23:35:53.811Z,101835.75
2022-08-11T23:36:47.451Z,101835.92
2022-08-11T23:37:44.873Z,101835.42
2022-08-11T23:38:45.160Z,101835.05
2022-08-11T23:39:45.307Z,101835.03
2022-08-11T23:40:46.073Z,101835.06
2022-08-11T23:41:46.087Z,101834.88
2022-08-11T23:42:46.353Z,101834.56
2022-08-11T23:43:47.027Z,101834.04
2022-08-11T23:44:47.894Z,101833.91
2022-08-11T23:45:49.044Z,101833.36
2022-08-11T23:46:48.575Z,101833.05
2022-08-11T23:47:51.042Z,101833.27
2022-08-11T23:48:49.703Z,101833.57
2022-08-11T23:49:50.511Z,101833.53
2022-08-11T23:50:52.003Z,101833.33
2022-08-11T23:51:52.621Z,101833.70
2022-08-11T23:52:52.152Z,101833.58
2022-08-11T23:53:52.264Z,101833.20
2022-08-11T23:54:53.033Z,101832.72
2022-08-11T23:55:53.940Z,101832.80
2022-08-11T23:56:02.642Z,101829.20
2022-08-11T23:57:03.322Z,101831.39
2022-08-11T23:58:03.963Z,101831.64
2022-08-11T23:59:04.317Z,101831.34
